Time;durP1;ratioP1;P1;durP2;ratioP2;P2;SDS_P1;SDS_P2;PMS_P1;PMS_P2;Temp;Humidity;BMP_temperature;BMP_pressure;BME280_temperature;BME280_humidity;BME280_pressure;Samples;Min_cycle;Max_cycle;Signal;HPM_P1;HPM_P2
2022/11/10 00:00:11;;;;;;;6.37;1.93;;;9.70;99.90;;;;;;5096520;28;20284;-77
2022/11/10 00:02:37;;;;;;;10.63;2.10;;;9.80;99.90;;;;;;5096850;28;20047;-78
2022/11/10 00:05:03;;;;;;;11.03;2.37;;;9.80;99.90;;;;;;5096176;28;20031;-78
2022/11/10 00:07:28;;;;;;;13.60;2.15;;;9.80;99.90;;;;;;5079312;28;20278;-78
2022/11/10 00:09:54;;;;;;;9.43;1.83;;;10.10;99.90;;;;;;5096668;28;20035;-77
2022/11/10 00:12:21;;;;;;;7.75;1.67;;;9.90;99.90;;;;;;5113301;28;20356;-78
2022/11/10 00:17:34;;;;;;;12.02;2.25;;;9.80;99.90;;;;;;5113344;28;20047;-77
2022/11/10 00:19:59;;;;;;;8.25;1.88;;;9.70;99.90;;;;;;5096010;28;20056;-78
2022/11/10 00:22:25;;;;;;;5.20;1.90;;;9.70;99.90;;;;;;5079451;28;20498;-77
2022/11/10 00:24:51;;;;;;;15.23;2.30;;;9.70;99.90;;;;;;5115317;27;20115;-77
2022/11/10 00:27:16;;;;;;;7.50;1.87;;;9.70;99.90;;;;;;5083339;27;20307;-78
2022/11/10 00:29:42;;;;;;;7.63;1.27;;;9.60;99.90;;;;;;5116987;27;20039;-78
2022/11/10 00:32:08;;;;;;;6.00;1.98;;;9.90;99.90;;;;;;5099891;27;20042;-78
2022/11/10 00:34:35;;;;;;;9.52;2.03;;;9.60;99.90;;;;;;5100067;27;20530;-77
2022/11/10 00:37:01;;;;;;;10.68;2.55;;;9.60;99.90;;;;;;5099324;27;20497;-78
2022/11/10 00:39:26;;;;;;;6.93;1.98;;;9.50;99.90;;;;;;5083121;27;20126;-78
2022/11/10 00:41:52;;;;;;;10.15;3.00;;;9.50;99.90;;;;;;5116201;27;20127;-78
2022/11/10 00:44:18;;;;;;;7.82;2.40;;;9.70;99.90;;;;;;5066230;27;20402;-77
2022/11/10 00:46:44;;;;;;;7.53;2.47;;;9.40;99.90;;;;;;5115997;27;20070;-77
2022/11/10 00:49:10;;;;;;;10.43;2.42;;;9.60;99.90;;;;;;5065120;27;20317;-78
2022/11/10 00:51:36;;;;;;;10.93;2.50;;;9.50;99.90;;;;;;5099209;27;20088;-78
2022/11/10 00:54:02;;;;;;;8.23;2.30;;;10.00;99.90;;;;;;5099726;27;20063;-77
2022/11/10 00:56:27;;;;;;;9.90;2.83;;;9.40;99.90;;;;;;5080719;27;20281;-77
2022/11/10 00:58:53;;;;;;;10.80;2.03;;;9.40;99.90;;;;;;5116027;27;20080;-78
2022/11/10 01:01:20;;;;;;;7.33;1.80;;;9.40;99.90;;;;;;5099633;27;20062;-78
2022/11/10 01:03:46;;;;;;;10.82;2.47;;;9.50;99.90;;;;;;5116452;27;20045;-78
2022/11/10 01:06:15;;;;;;;8.07;2.13;;;9.40;99.90;;;;;;5115985;27;20035;-77
2022/11/10 01:08:42;;;;;;;6.45;1.75;;;9.50;99.90;;;;;;5099124;27;20122;-77
2022/11/10 01:11:20;;;;;;;11.65;2.50;;;9.50;99.90;;;;;;5098874;27;20031;-78
2022/11/10 01:13:48;;;;;;;10.65;2.17;;;9.50;99.90;;;;;;5115924;27;20032;-78
2022/11/10 01:16:25;;;;;;;11.15;2.20;;;9.60;99.90;;;;;;5082171;27;20118;-78
2022/11/10 01:18:57;;;;;;;11.48;2.58;;;9.60;99.90;;;;;;5116264;27;20036;-78
2022/11/10 01:21:23;;;;;;;14.85;2.60;;;9.60;99.90;;;;;;5113977;27;20475;-78
2022/11/10 01:23:49;;;;;;;8.25;2.65;;;9.60;99.90;;;;;;5099227;27;20076;-78
2022/11/10 01:26:16;;;;;;;16.25;2.78;;;9.50;99.90;;;;;;5115610;27;20046;-78
2022/11/10 01:28:43;;;;;;;11.20;2.83;;;9.50;99.90;;;;;;5098670;27;20038;-78
2022/11/10 01:31:11;;;;;;;11.57;3.40;;;9.40;99.90;;;;;;5115489;27;20039;-78
2022/11/10 01:33:37;;;;;;;18.08;3.03;;;9.50;99.90;;;;;;5115395;27;20100;-78
2022/11/10 01:36:03;;;;;;;6.20;1.90;;;9.70;99.90;;;;;;5115242;27;20456;-78
2022/11/10 01:38:32;;;;;;;10.80;2.25;;;9.60;99.90;;;;;;5098097;27;20051;-77
2022/11/10 01:40:58;;;;;;;11.63;2.67;;;9.60;99.90;;;;;;5098368;27;20039;-77
2022/11/10 01:43:25;;;;;;;;;;;9.50;99.90;;;;;;5116024;27;20073;-78
2022/11/10 01:46:02;;;;;;;11.88;2.78;;;9.50;99.90;;;;;;5115413;27;19922;-78
2022/11/10 01:48:28;;;;;;;;;;;9.50;99.90;;;;;;5097028;27;20035;-78
2022/11/10 01:50:55;;;;;;;15.70;3.90;;;9.50;99.90;;;;;;5115970;27;19922;-77
2022/11/10 01:53:26;;;;;;;14.80;3.13;;;9.40;99.90;;;;;;5098528;27;20092;-78
2022/11/10 01:55:53;;;;;;;11.73;3.38;;;9.90;99.90;;;;;;5113357;27;20095;-77
2022/11/10 01:58:23;;;;;;;17.45;3.50;;;9.40;99.90;;;;;;5098154;27;20402;-78
2022/11/10 02:00:49;;;;;;;22.50;4.13;;;9.40;99.90;;;;;;5115033;27;20035;-78
2022/11/10 02:03:20;;;;;;;;;;;9.40;99.90;;;;;;5098666;27;20514;-78
2022/11/10 02:05:45;;;;;;;13.50;3.15;;;9.80;99.90;;;;;;5115483;27;19919;-78
2022/11/10 02:08:16;;;;;;;11.70;3.80;;;9.30;99.90;;;;;;5098168;27;20042;-77
2022/11/10 02:10:42;;;;;;;13.35;3.30;;;9.30;99.90;;;;;;5112883;27;20037;-78
2022/11/10 02:13:09;;;;;;;13.48;3.60;;;9.30;99.90;;;;;;5097904;27;20479;-77
2022/11/10 02:15:35;;;;;;;18.00;4.35;;;9.30;99.90;;;;;;5115048;27;20072;-78
2022/11/10 02:18:00;;;;;;;15.00;4.07;;;9.40;99.90;;;;;;5114388;27;20479;-78
2022/11/10 02:20:26;;;;;;;8.80;3.33;;;9.30;99.90;;;;;;5098072;27;20281;-78
2022/11/10 02:22:51;;;;;;;11.33;3.93;;;9.30;99.90;;;;;;5114548;27;20057;-78
2022/11/10 02:25:20;;;;;;;12.00;4.15;;;9.40;99.90;;;;;;5097498;27;20078;-78
2022/11/10 02:27:46;;;;;;;9.45;4.10;;;9.30;99.90;;;;;;5098139;27;20046;-77
2022/11/10 02:30:12;;;;;;;14.80;3.55;;;9.30;99.90;;;;;;5114122;27;20035;-78
2022/11/10 02:32:38;;;;;;;16.23;3.67;;;9.40;99.90;;;;;;5097773;27;20042;-78
2022/11/10 02:35:04;;;;;;;14.38;3.75;;;9.30;99.90;;;;;;5080513;27;20058;-78
2022/11/10 02:37:29;;;;;;;12.88;3.65;;;9.40;99.90;;;;;;5080486;27;20054;-78
2022/11/10 02:39:55;;;;;;;17.30;4.27;;;9.40;99.90;;;;;;5098096;27;20042;-78
2022/11/10 02:42:21;;;;;;;9.10;3.42;;;9.80;99.90;;;;;;5080292;27;20035;-78
2022/11/10 02:44:47;;;;;;;12.53;3.13;;;9.30;99.90;;;;;;5114245;27;20066;-77
2022/11/10 02:47:12;;;;;;;12.02;3.40;;;9.40;99.90;;;;;;5113693;27;20039;-78
2022/11/10 02:49:38;;;;;;;11.88;3.38;;;9.40;99.90;;;;;;5114342;27;20043;-78
2022/11/10 02:52:04;;;;;;;16.13;3.50;;;9.40;99.90;;;;;;5096800;27;20658;-78
2022/11/10 02:54:29;;;;;;;16.33;3.72;;;9.40;99.90;;;;;;5097684;27;20039;-78
2022/11/10 02:56:55;;;;;;;13.23;3.40;;;9.40;99.90;;;;;;5097153;27;20041;-77
2022/11/10 02:59:21;;;;;;;14.85;3.47;;;9.40;99.90;;;;;;5096677;27;20075;-78
2022/11/10 03:01:46;;;;;;;30.80;4.50;;;9.40;99.90;;;;;;5113773;27;20035;-78
2022/11/10 03:04:12;;;;;;;14.77;3.30;;;9.40;99.90;;;;;;5079478;27;20032;-78
2022/11/10 03:06:38;;;;;;;11.67;3.57;;;9.40;99.90;;;;;;5114011;27;20045;-78
2022/11/10 03:09:04;;;;;;;11.77;3.70;;;9.30;99.90;;;;;;5113802;27;20281;-78
2022/11/10 03:11:29;;;;;;;14.93;4.35;;;9.30;99.90;;;;;;5080303;27;20031;-78
2022/11/10 03:13:55;;;;;;;11.70;2.40;;;9.40;99.90;;;;;;5079470;27;20127;-78
2022/11/10 03:16:20;;;;;;;15.40;3.95;;;9.40;99.90;;;;;;5112442;27;20038;-78
2022/11/10 03:18:46;;;;;;;12.33;3.43;;;9.40;99.90;;;;;;5079568;27;20090;-78
2022/11/10 03:21:12;;;;;;;10.47;3.73;;;9.80;99.90;;;;;;5113161;27;20031;-78
2022/11/10 03:23:37;;;;;;;16.50;4.22;;;9.40;99.90;;;;;;5113878;27;20478;-77
2022/11/10 03:26:04;;;;;;;17.67;4.13;;;9.40;99.90;;;;;;5096660;27;20042;-77
2022/11/10 03:28:30;;;;;;;10.07;3.63;;;9.40;99.90;;;;;;5113931;27;20054;-77
2022/11/10 03:30:56;;;;;;;14.57;3.77;;;9.50;99.90;;;;;;5078352;27;20047;-77
2022/11/10 03:33:21;;;;;;;15.17;3.37;;;9.40;99.90;;;;;;5096495;28;20042;-77
2022/11/10 03:35:47;;;;;;;13.67;3.27;;;9.40;99.90;;;;;;5113386;28;20151;-77
2022/11/10 03:38:12;;;;;;;14.33;3.73;;;9.40;99.90;;;;;;5113020;28;20332;-77
2022/11/10 03:40:38;;;;;;;17.03;4.57;;;9.50;99.90;;;;;;5113323;28;20043;-77
2022/11/10 03:43:04;;;;;;;9.73;3.50;;;9.40;99.90;;;;;;5079770;28;20284;-77
2022/11/10 03:45:29;;;;;;;19.10;3.30;;;9.40;99.90;;;;;;5079453;28;20027;-77
2022/11/10 03:47:55;;;;;;;13.63;3.53;;;9.40;99.90;;;;;;5078626;28;20063;-77
2022/11/10 03:50:21;;;;;;;16.37;3.20;;;9.40;99.90;;;;;;5113000;28;20058;-77
2022/11/10 03:52:47;;;;;;;11.43;3.10;;;9.30;99.90;;;;;;5113217;28;20281;-77
2022/11/10 03:55:15;;;;;;;13.82;3.25;;;9.60;99.90;;;;;;5113164;28;20686;-77
2022/11/10 03:57:41;;;;;;;12.48;3.38;;;9.30;99.90;;;;;;5096175;27;20042;-77
2022/11/10 04:00:08;;;;;;;12.63;3.38;;;9.30;99.90;;;;;;5099582;27;20039;-77
2022/11/10 04:02:35;;;;;;;16.92;3.40;;;9.20;99.90;;;;;;5083019;27;20049;-77
2022/11/10 04:10:29;;;;;;;12.20;3.42;;;9.20;99.90;;;;;;5116998;27;20049;-77
2022/11/10 04:15:41;;;;;;;17.65;3.47;;;9.20;99.90;;;;;;5102602;27;20043;-78
2022/11/10 04:18:22;;;;;;;17.88;3.78;;;9.20;99.90;;;;;;5100423;27;20100;-78
2022/11/10 04:20:48;;;;;;;10.95;3.58;;;9.30;99.90;;;;;;5100298;27;20035;-78
2022/11/10 04:23:27;;;;;;;14.68;3.40;;;9.30;99.90;;;;;;5116846;27;20027;-78
2022/11/10 04:28:47;;;;;;;14.90;3.67;;;9.30;99.90;;;;;;5116764;27;20047;-78
2022/11/10 04:31:14;;;;;;;11.13;4.03;;;9.50;99.90;;;;;;5083393;27;20495;-78
2022/11/10 04:33:40;;;;;;;13.48;4.38;;;9.40;99.90;;;;;;5117117;27;20046;-78
2022/11/10 04:36:08;;;;;;;15.98;3.55;;;9.50;99.90;;;;;;5099836;27;20046;-78
2022/11/10 04:38:33;;;;;;;15.77;4.95;;;9.50;99.90;;;;;;5113930;27;20062;-78
2022/11/10 04:40:59;;;;;;;17.35;3.63;;;9.50;99.90;;;;;;5099832;27;20039;-78
2022/11/10 04:43:26;;;;;;;10.32;3.03;;;9.60;99.90;;;;;;5082554;27;20031;-78
2022/11/10 04:45:52;;;;;;;16.00;4.72;;;9.60;99.90;;;;;;5099655;27;20517;-78
2022/11/10 04:48:17;;;;;;;18.30;4.30;;;9.60;99.90;;;;;;5098971;27;20406;-78
2022/11/10 04:50:43;;;;;;;20.45;4.60;;;9.60;99.90;;;;;;5099613;27;20039;-78
2022/11/10 04:53:09;;;;;;;25.97;4.80;;;9.70;99.90;;;;;;5066189;27;20066;-78
2022/11/10 04:55:39;;;;;;;18.67;4.60;;;9.70;99.90;;;;;;5116201;27;20303;-78
2022/11/10 04:58:05;;;;;;;19.05;4.68;;;9.70;99.90;;;;;;5116520;27;20417;-78
2022/11/10 05:00:31;;;;;;;14.88;5.05;;;9.60;99.90;;;;;;5099207;27;20046;-78
2022/11/10 05:03:02;;;;;;;17.25;4.07;;;9.70;99.90;;;;;;5116258;27;20031;-78
2022/11/10 05:05:28;;;;;;;15.63;3.53;;;9.70;99.90;;;;;;5113897;27;20057;-78
2022/11/10 05:07:54;;;;;;;19.65;4.80;;;9.70;99.90;;;;;;5116144;27;20095;-78
2022/11/10 05:10:19;;;;;;;13.82;3.97;;;9.70;99.90;;;;;;5098262;27;20478;-78
2022/11/10 05:12:45;;;;;;;17.88;3.53;;;9.70;99.90;;;;;;5082496;27;20356;-78
2022/11/10 05:15:11;;;;;;;13.73;4.40;;;9.70;99.90;;;;;;5082362;27;20039;-78
2022/11/10 05:17:37;;;;;;;18.33;3.87;;;9.70;99.90;;;;;;5079569;27;20134;-79
2022/11/10 05:20:03;;;;;;;15.30;4.22;;;9.80;99.90;;;;;;5116106;27;20276;-79
2022/11/10 05:22:29;;;;;;;17.10;4.50;;;9.70;99.90;;;;;;5098462;27;20184;-78
2022/11/10 05:24:55;;;;;;;8.93;3.63;;;9.70;99.90;;;;;;5115810;27;20118;-79
2022/11/10 05:27:21;;;;;;;18.20;3.97;;;9.80;99.90;;;;;;5115167;27;20043;-80
2022/11/10 05:29:46;;;;;;;17.77;3.28;;;9.70;99.90;;;;;;5115568;27;20089;-80
2022/11/10 05:32:12;;;;;;;11.43;3.50;;;9.70;99.90;;;;;;5098398;27;20043;-79
2022/11/10 05:34:38;;;;;;;15.70;3.50;;;10.10;99.90;;;;;;5115184;27;20065;-77
2022/11/10 05:37:03;;;;;;;12.57;3.53;;;9.80;99.90;;;;;;5097698;27;20305;-78
2022/11/10 05:39:29;;;;;;;16.93;4.13;;;9.70;99.90;;;;;;5081041;27;20317;-77
2022/11/10 05:41:55;;;;;;;16.47;3.00;;;9.70;99.90;;;;;;5115166;27;20888;-78
2022/11/10 05:44:20;;;;;;;20.85;4.18;;;9.70;99.90;;;;;;5114670;27;20043;-78
2022/11/10 05:46:47;;;;;;;18.27;3.50;;;9.70;99.90;;;;;;5114897;27;20049;-78
2022/11/10 05:49:13;;;;;;;21.13;4.15;;;9.70;99.90;;;;;;5098617;27;20363;-79
2022/11/10 05:51:38;;;;;;;13.88;3.28;;;9.70;99.90;;;;;;5097943;27;20073;-74
2022/11/10 05:54:04;;;;;;;13.40;3.78;;;9.70;99.90;;;;;;5097926;27;20035;-74
2022/11/10 05:56:30;;;;;;;15.82;3.28;;;9.70;99.90;;;;;;5114620;27;20043;-74
2022/11/10 05:58:56;;;;;;;19.90;4.35;;;9.80;99.90;;;;;;5097688;27;20035;-74
2022/11/10 06:01:21;;;;;;;15.13;3.40;;;9.70;99.90;;;;;;5114340;27;20050;-74
2022/11/10 06:03:47;;;;;;;13.63;2.93;;;9.80;99.90;;;;;;5114291;27;20096;-74
2022/11/10 06:06:13;;;;;;;15.03;3.07;;;9.80;99.90;;;;;;5114468;27;20043;-74
2022/11/10 06:08:38;;;;;;;16.23;3.30;;;9.80;99.90;;;;;;5113891;27;20281;-74
2022/11/10 06:11:04;;;;;;;14.13;3.07;;;9.80;99.90;;;;;;5132904;27;20046;-74
2022/11/10 06:13:30;;;;;;;12.85;3.05;;;9.80;99.90;;;;;;5114632;27;20030;-74
2022/11/10 06:15:55;;;;;;;10.63;3.23;;;9.80;99.90;;;;;;5114676;27;20039;-74
2022/11/10 06:18:21;;;;;;;11.20;2.80;;;9.90;99.90;;;;;;5097968;27;20035;-80
2022/11/10 06:20:47;;;;;;;16.13;3.70;;;9.90;99.90;;;;;;5114720;27;20040;-80
2022/11/10 06:23:13;;;;;;;11.18;3.08;;;10.30;99.90;;;;;;5115275;27;20035;-80
2022/11/10 06:25:40;;;;;;;26.30;3.85;;;9.90;99.90;;;;;;5115767;27;20482;-80
2022/11/10 06:28:07;;;;;;;12.93;3.10;;;9.80;99.90;;;;;;5115591;27;20057;-81
2022/11/10 06:30:34;;;;;;;13.70;2.95;;;10.00;99.90;;;;;;5081400;27;20075;-80
2022/11/10 06:33:00;;;;;;;14.48;3.10;;;9.90;99.90;;;;;;5095544;28;20066;-81
2022/11/10 06:35:26;;;;;;;21.43;3.20;;;10.00;99.90;;;;;;5111372;27;20039;-81
2022/11/10 06:37:56;;;;;;;12.60;3.42;;;10.00;99.90;;;;;;5109431;28;20761;-80
2022/11/10 06:40:22;;;;;;;14.80;3.55;;;10.00;99.90;;;;;;5071680;28;20048;-81
2022/11/10 06:42:47;;;;;;;16.93;3.50;;;9.90;99.90;;;;;;5083202;28;20040;-80
2022/11/10 06:45:13;;;;;;;17.33;3.07;;;10.00;99.90;;;;;;5094909;28;20040;-80
2022/11/10 06:47:39;;;;;;;17.70;3.28;;;9.90;99.90;;;;;;5084559;28;20374;-80
2022/11/10 06:50:05;;;;;;;15.43;2.97;;;9.90;99.90;;;;;;5081326;28;20061;-80
2022/11/10 06:52:31;;;;;;;19.15;3.13;;;9.90;99.90;;;;;;5085212;28;20787;-80
2022/11/10 06:54:57;;;;;;;14.25;3.92;;;10.00;99.90;;;;;;5051304;28;20115;-80
2022/11/10 06:57:23;;;;;;;20.88;3.78;;;10.00;99.90;;;;;;5100092;28;20118;-80
2022/11/10 06:59:49;;;;;;;14.43;2.93;;;10.00;99.90;;;;;;5080102;28;20535;-81
2022/11/10 07:02:14;;;;;;;13.32;3.33;;;10.00;99.90;;;;;;5080033;28;20400;-81
2022/11/10 07:04:43;;;;;;;17.90;3.10;;;10.00;99.90;;;;;;5103791;28;20031;-80
2022/11/10 07:07:10;;;;;;;19.73;3.63;;;10.00;99.90;;;;;;5081960;28;20488;-81
2022/11/10 07:09:36;;;;;;;19.42;3.60;;;10.10;99.90;;;;;;5098630;28;20050;-81
2022/11/10 07:12:03;;;;;;;14.25;2.70;;;10.10;99.90;;;;;;5088756;28;20115;-80
2022/11/10 07:14:29;;;;;;;14.38;3.22;;;10.10;99.90;;;;;;5100530;28;20046;-80
2022/11/10 07:16:54;;;;;;;20.08;3.15;;;10.10;99.90;;;;;;5084879;28;20391;-80
2022/11/10 07:19:20;;;;;;;15.70;3.43;;;10.20;99.90;;;;;;5079226;28;20039;-80
2022/11/10 07:21:46;;;;;;;9.00;4.30;;;10.30;99.90;;;;;;5099889;28;20074;-81
2022/11/10 07:24:11;;;;;;;16.00;4.13;;;10.30;99.90;;;;;;5084602;28;20115;-80
2022/11/10 07:26:37;;;;;;;13.13;3.33;;;10.30;99.90;;;;;;5108778;28;20106;-81
2022/11/10 07:29:03;;;;;;;24.17;3.90;;;10.30;99.90;;;;;;5069352;28;20038;-80
2022/11/10 07:31:28;;;;;;;17.87;3.77;;;10.30;99.90;;;;;;5098558;28;20325;-80
2022/11/10 07:33:54;;;;;;;14.43;2.90;;;10.40;99.90;;;;;;5093265;28;20313;-80
2022/11/10 07:36:20;;;;;;;16.03;3.23;;;10.30;99.90;;;;;;5100961;28;20044;-80
2022/11/10 07:38:46;;;;;;;13.60;3.22;;;10.30;99.90;;;;;;5076175;28;20864;-81
2022/11/10 07:41:11;;;;;;;12.43;2.83;;;10.20;99.90;;;;;;5092691;28;20127;-81
2022/11/10 07:43:37;;;;;;;18.57;3.43;;;10.20;99.90;;;;;;5050999;28;20695;-81
2022/11/10 07:46:03;;;;;;;19.60;3.55;;;10.10;99.90;;;;;;5084802;28;20043;-81
2022/11/10 07:48:28;;;;;;;23.00;3.17;;;10.10;99.90;;;;;;5086996;28;20031;-81
2022/11/10 07:50:54;;;;;;;18.50;3.43;;;10.20;99.90;;;;;;5101440;28;20040;-81
2022/11/10 07:53:20;;;;;;;20.67;4.03;;;10.20;99.90;;;;;;5099013;28;20051;-81
2022/11/10 07:55:47;;;;;;;9.07;2.75;;;10.20;99.90;;;;;;5103452;28;20046;-81
2022/11/10 07:58:14;;;;;;;;;;;10.30;99.90;;;;;;5109288;28;20079;-81
2022/11/10 08:00:40;;;;;;;18.52;3.28;;;10.30;99.90;;;;;;5086602;28;19916;-81
2022/11/10 08:03:10;;;;;;;16.30;3.10;;;10.40;99.90;;;;;;5107532;28;20122;-81
2022/11/10 08:05:36;;;;;;;17.38;3.67;;;10.30;99.90;;;;;;5097739;28;20043;-81
2022/11/10 08:08:03;;;;;;;14.95;3.28;;;10.30;99.90;;;;;;5076976;28;20039;-80
2022/11/10 08:10:30;;;;;;;22.88;3.45;;;10.40;99.90;;;;;;5105946;28;20135;-81
2022/11/10 08:12:58;;;;;;;15.75;3.38;;;10.50;99.90;;;;;;5089087;28;20131;-80
2022/11/10 08:15:24;;;;;;;16.27;3.65;;;10.60;99.90;;;;;;5106404;28;20469;-80
2022/11/10 08:17:50;;;;;;;14.68;3.70;;;10.60;99.90;;;;;;5106030;28;20071;-80
2022/11/10 08:20:17;;;;;;;21.88;3.67;;;10.80;99.90;;;;;;5089286;28;20048;-80
2022/11/10 08:22:43;;;;;;;;;;;11.10;99.90;;;;;;5101621;28;20036;-81
2022/11/10 08:25:09;;;;;;;16.50;3.70;;;11.70;99.90;;;;;;5099038;28;19968;-81
2022/11/10 08:27:37;;;;;;;14.25;3.20;;;12.30;99.90;;;;;;5108481;28;20047;-81
2022/11/10 08:30:03;;;;;;;17.10;3.55;;;13.00;99.90;;;;;;5091362;28;20040;-81
2022/11/10 08:32:29;;;;;;;16.75;3.38;;;13.40;99.90;;;;;;5107369;28;20499;-81
2022/11/10 08:34:54;;;;;;;10.10;2.58;;;13.70;99.90;;;;;;5093679;28;20047;-82
2022/11/10 08:37:20;;;;;;;11.10;2.70;;;14.20;99.90;;;;;;5088240;28;20051;-81
2022/11/10 08:39:46;;;;;;;15.85;3.35;;;14.60;99.90;;;;;;5080807;28;20126;-81
2022/11/10 08:42:11;;;;;;;11.57;2.88;;;14.90;99.90;;;;;;5090377;28;20028;-81
2022/11/10 08:44:37;;;;;;;16.48;4.07;;;15.30;99.90;;;;;;5039972;28;20060;-81
2022/11/10 08:47:03;;;;;;;14.25;3.80;;;15.50;99.90;;;;;;5072589;28;20039;-81
2022/11/10 08:49:29;;;;;;;15.27;3.40;;;15.60;99.90;;;;;;5057711;28;20064;-81
2022/11/10 08:51:54;;;;;;;12.32;2.78;;;15.20;99.90;;;;;;5073452;28;20043;-81
2022/11/10 08:54:20;;;;;;;12.82;2.90;;;14.60;99.90;;;;;;5094258;28;20036;-81
2022/11/10 08:56:46;;;;;;;11.68;2.83;;;14.20;99.90;;;;;;5093826;28;20040;-81
2022/11/10 08:59:11;;;;;;;8.38;2.33;;;13.90;99.90;;;;;;5047158;28;20063;-81
2022/11/10 09:01:37;;;;;;;12.27;2.90;;;13.80;99.90;;;;;;5090466;28;20051;-81
2022/11/10 09:04:03;;;;;;;15.30;2.78;;;14.00;99.90;;;;;;5059679;28;20278;-82
2022/11/10 09:06:28;;;;;;;11.88;3.08;;;14.30;99.90;;;;;;5093795;28;20036;-81
2022/11/10 09:08:54;;;;;;;12.52;3.28;;;14.70;99.90;;;;;;5073037;28;20043;-81
2022/11/10 09:11:19;;;;;;;12.07;2.50;;;15.10;99.90;;;;;;5061739;28;20063;-81
2022/11/10 09:13:45;;;;;;;11.05;2.65;;;15.60;99.90;;;;;;5093430;28;20403;-82
2022/11/10 09:16:11;;;;;;;11.60;2.75;;;15.80;99.90;;;;;;5076772;28;20054;-82
2022/11/10 09:18:36;;;;;;;11.00;2.63;;;15.70;99.90;;;;;;5093782;28;20047;-82
2022/11/10 09:21:10;;;;;;;15.02;3.28;;;15.90;99.90;;;;;;5094100;28;20044;-81
2022/11/10 09:23:36;;;;;;;17.08;3.13;;;16.20;99.90;;;;;;5075362;28;20072;-81
2022/11/10 09:26:05;;;;;;;10.02;2.65;;;16.30;99.90;;;;;;5093559;28;20484;-81
2022/11/10 09:28:30;;;;;;;14.55;3.55;;;16.50;99.90;;;;;;5093988;28;20484;-82
2022/11/10 09:30:56;;;;;;;13.63;3.20;;;16.50;99.90;;;;;;5076705;28;20056;-81
2022/11/10 09:33:21;;;;;;;16.67;3.47;;;16.40;99.90;;;;;;5093968;28;20044;-81
2022/11/10 09:35:47;;;;;;;15.38;3.00;;;15.90;99.90;;;;;;5093667;28;20095;-81
2022/11/10 09:38:13;;;;;;;17.73;3.38;;;15.40;99.90;;;;;;5104942;28;20082;-82
2022/11/10 09:40:54;;;;;;;13.60;3.42;;;15.00;99.90;;;;;;5096812;28;20044;-82
2022/11/10 09:43:29;;;;;;;18.60;3.97;;;15.00;99.90;;;;;;5113755;28;20066;-81
2022/11/10 09:45:59;;;;;;;19.33;4.05;;;15.00;99.90;;;;;;5113292;28;20042;-81
2022/11/10 09:48:36;;;;;;;13.45;3.63;;;14.80;99.90;;;;;;5113722;28;20047;-82
2022/11/10 09:51:07;;;;;;;12.82;4.15;;;14.40;99.90;;;;;;5110987;28;20047;-81
2022/11/10 09:53:46;;;;;;;21.08;4.97;;;14.20;99.90;;;;;;5114047;28;20449;-81
2022/11/10 09:56:33;;;;;;;17.95;4.63;;;13.90;99.90;;;;;;5113319;28;20047;-81
2022/11/10 09:59:02;;;;;;;16.30;4.80;;;13.80;99.90;;;;;;5113133;28;20051;-81
2022/11/10 10:01:35;;;;;;;14.65;3.85;;;13.70;99.90;;;;;;5113445;28;20505;-81
2022/11/10 10:04:20;;;;;;;13.55;4.50;;;13.70;99.90;;;;;;5111569;28;20094;-81
2022/11/10 10:07:11;;;;;;;11.73;4.80;;;13.80;99.90;;;;;;5113103;28;20035;-81
2022/11/10 10:09:51;;;;;;;16.98;5.32;;;13.80;99.90;;;;;;5113444;28;20043;-81
2022/11/10 10:12:22;;;;;;;12.70;4.65;;;13.80;99.90;;;;;;5104926;28;20123;-82
2022/11/10 10:15:22;;;;;;;16.27;3.92;;;14.10;99.90;;;;;;5112809;28;20043;-81
2022/11/10 10:17:57;;;;;;;14.98;4.55;;;14.20;99.90;;;;;;5039530;28;20413;-81
2022/11/10 10:20:46;;;;;;;13.93;4.40;;;14.30;99.90;;;;;;5091441;28;20088;-81
2022/11/10 10:23:29;;;;;;;19.23;4.55;;;14.40;99.90;;;;;;5096056;28;20032;-81
2022/11/10 10:25:55;;;;;;;14.50;4.97;;;14.60;99.90;;;;;;5112398;28;20032;-81
2022/11/10 10:28:37;;;;;;;19.70;4.47;;;15.00;99.90;;;;;;5113003;28;20445;-81
2022/11/10 10:31:31;;;;;;;13.88;4.43;;;15.00;99.90;;;;;;5101044;28;20045;-81
2022/11/10 10:33:57;;;;;;;16.80;4.65;;;14.80;99.90;;;;;;5104370;28;20406;-81
2022/11/10 10:36:28;;;;;;;14.80;4.82;;;14.70;99.90;;;;;;5111920;28;20035;-81
2022/11/10 10:39:01;;;;;;;12.98;4.57;;;14.60;99.90;;;;;;5085561;28;20104;-81
2022/11/10 10:41:29;;;;;;;14.93;4.30;;;14.80;99.90;;;;;;5112733;28;20410;-81
2022/11/10 10:43:59;;;;;;;19.02;4.28;;;15.30;99.90;;;;;;5112366;28;20078;-81
2022/11/10 10:46:28;;;;;;;17.92;4.35;;;15.60;99.90;;;;;;5095901;28;20491;-81
2022/11/10 10:49:07;;;;;;;16.65;5.10;;;15.80;99.90;;;;;;5095611;28;20043;-82
2022/11/10 10:51:33;;;;;;;13.90;4.18;;;15.90;99.90;;;;;;5112690;28;20051;-81
2022/11/10 10:53:58;;;;;;;12.40;3.97;;;15.90;99.90;;;;;;5095772;28;20036;-81
2022/11/10 10:56:31;;;;;;;10.75;3.60;;;15.80;99.90;;;;;;5095543;28;20054;-81
2022/11/10 10:59:01;;;;;;;15.73;4.50;;;15.90;99.90;;;;;;5112093;28;20070;-82
2022/11/10 11:01:30;;;;;;;17.13;4.63;;;16.00;99.90;;;;;;5112281;28;20043;-81
2022/11/10 11:03:56;;;;;;;18.88;4.53;;;16.00;99.90;;;;;;5112259;28;20028;-81
2022/11/10 11:06:26;;;;;;;17.48;4.20;;;15.70;99.90;;;;;;5112503;28;20499;-81
2022/11/10 11:09:08;;;;;;;11.75;3.88;;;15.60;99.90;;;;;;5104554;28;20046;-81
2022/11/10 11:11:37;;;;;;;13.63;3.83;;;15.50;99.90;;;;;;5095314;28;20419;-81
2022/11/10 11:14:12;;;;;;;12.93;3.63;;;15.50;99.90;;;;;;5111988;28;20040;-81
2022/11/10 11:16:56;;;;;;;14.30;4.05;;;15.30;99.90;;;;;;5095006;28;20124;-81
2022/11/10 11:19:24;;;;;;;18.15;3.85;;;15.10;99.90;;;;;;5095019;28;20111;-81
2022/11/10 11:22:08;;;;;;;10.90;3.28;;;14.80;99.90;;;;;;5111915;28;20464;-81
2022/11/10 11:24:43;;;;;;;13.95;3.63;;;14.70;99.90;;;;;;5111688;28;20036;-81
2022/11/10 11:27:20;;;;;;;15.98;3.05;;;14.60;99.90;;;;;;5111801;28;20407;-81
2022/11/10 11:29:49;;;;;;;14.50;3.33;;;14.40;99.90;;;;;;5111710;28;20101;-81
2022/11/10 11:32:34;;;;;;;18.52;3.45;;;14.30;99.90;;;;;;5111818;28;20561;-81
2022/11/10 11:35:00;;;;;;;14.32;3.85;;;14.20;99.90;;;;;;5094489;28;20032;-81
2022/11/10 11:37:39;;;;;;;15.57;3.73;;;14.20;99.90;;;;;;5114503;28;20043;-80
2022/11/10 11:40:24;;;;;;;13.45;3.45;;;14.20;99.90;;;;;;5090564;28;20790;-81
2022/11/10 11:43:27;;;;;;;13.90;3.58;;;14.20;99.90;;;;;;5114939;28;20414;-81
2022/11/10 11:46:11;;;;;;;12.73;3.80;;;14.30;99.90;;;;;;5114299;28;20035;-82
2022/11/10 11:48:51;;;;;;;17.27;3.08;;;14.30;99.90;;;;;;5098311;28;20188;-82
2022/11/10 11:51:34;;;;;;;17.52;4.25;;;14.40;99.90;;;;;;5094670;28;20102;-81
2022/11/10 11:54:24;;;;;;;19.80;3.85;;;14.40;99.90;;;;;;5102471;28;20035;-82
2022/11/10 11:56:51;;;;;;;12.70;3.35;;;14.40;99.90;;;;;;5082733;28;20035;-82
2022/11/10 11:59:42;;;;;;;11.50;3.35;;;14.40;99.90;;;;;;5130609;28;20047;-81
2022/11/10 12:02:41;;;;;;;14.43;3.58;;;14.40;99.90;;;;;;5132794;28;20067;-81
2022/11/10 12:05:28;;;;;;;14.00;3.08;;;14.40;99.90;;;;;;5114253;28;20035;-81
2022/11/10 12:08:23;;;;;;;14.73;3.13;;;14.50;99.90;;;;;;5097760;28;20495;-81
2022/11/10 12:11:02;;;;;;;12.35;2.90;;;14.40;99.90;;;;;;5084764;28;20050;-81
2022/11/10 12:13:29;;;;;;;13.07;3.03;;;14.40;99.90;;;;;;5103659;28;20343;-81
2022/11/10 12:16:24;;;;;;;12.20;2.65;;;14.40;99.90;;;;;;5114825;28;20035;-81
2022/11/10 12:19:15;;;;;;;11.65;2.78;;;14.50;99.90;;;;;;5109480;28;20104;-81
2022/11/10 12:22:19;;;;;;;15.05;2.60;;;14.60;99.90;;;;;;5101183;27;20031;-81
2022/11/10 12:25:04;;;;;;;11.30;2.53;;;14.60;99.90;;;;;;5087341;27;20510;-80
2022/11/10 12:27:35;;;;;;;10.20;2.35;;;14.60;99.90;;;;;;5118622;27;20506;-81
2022/11/10 12:30:09;;;;;;;12.18;2.58;;;14.60;99.90;;;;;;5101175;27;20409;-81
2022/11/10 12:32:42;;;;;;;17.05;3.13;;;14.50;99.90;;;;;;5118643;27;20405;-80
2022/11/10 12:35:22;;;;;;;10.20;2.42;;;14.50;99.90;;;;;;5094672;27;20027;-81
2022/11/10 12:38:00;;;;;;;12.32;2.45;;;14.50;99.90;;;;;;5118321;27;20051;-80
2022/11/10 12:40:37;;;;;;;12.75;2.72;;;14.50;99.90;;;;;;5101229;27;20043;-81
2022/11/10 12:43:29;;;;;;;12.80;2.63;;;14.50;99.90;;;;;;5099003;27;20039;-81
2022/11/10 12:46:03;;;;;;;9.25;2.65;;;14.50;99.90;;;;;;5108535;27;20043;-81
2022/11/10 12:48:42;;;;;;;16.95;3.05;;;14.50;99.90;;;;;;5101407;27;20072;-81
2022/11/10 12:51:25;;;;;;;13.95;2.00;;;14.50;99.90;;;;;;5118145;27;20513;-81
2022/11/10 12:53:52;;;;;;;12.98;2.28;;;14.60;99.90;;;;;;5118038;27;20043;-81
2022/11/10 12:56:21;;;;;;;13.52;2.20;;;14.60;99.90;;;;;;5100853;27;20042;-81
2022/11/10 12:58:47;;;;;;;10.75;1.98;;;14.50;99.90;;;;;;5117572;27;20555;-81
2022/11/10 13:01:18;;;;;;;13.65;1.98;;;14.40;99.90;;;;;;5101027;27;20113;-81
2022/11/10 13:03:59;;;;;;;12.80;2.33;;;14.40;99.90;;;;;;5100623;27;20035;-81
2022/11/10 13:06:36;;;;;;;11.98;2.28;;;14.40;99.90;;;;;;5097851;27;20074;-81